Time,TemperatureF,DewpointF,PressureIn,WindDirection,WindDirectionDegrees,WindSpeedMPH,WindSpeedGustMPH,Humidity,HourlyPrecipIn,Conditions,Clouds,dailyrainin,SoftwareType,DateUTC
2013-02-07 00:07:00,68.9,63.0,30.08,ESE,116,0.0,-999.0,81,-99.99,,,0.00,weatherlink.com 1.10,2013-02-07 05:07:00,
2013-02-07 00:22:00,68.5,63.0,30.08,ESE,115,0.0,-999.0,82,-99.99,,,0.00,weatherlink.com 1.10,2013-02-07 05:22:00,
2013-02-07 00:39:00,68.2,63.0,30.07,ESE,115,0.0,-999.0,83,-99.99,,,0.00,weatherlink.com 1.10,2013-02-07 05:39:00,
2013-02-07 00:52:00,68.1,63.0,30.08,ESE,115,0.0,-999.0,83,-99.99,,,0.00,weatherlink.com 1.10,2013-02-07 05:52:00,
2013-02-07 01:07:00,68.2,63.0,30.07,SE,127,0.0,-999.0,83,-99.99,,,0.00,weatherlink.com 1.10,2013-02-07 06:07:00,
2013-02-07 01:24:00,68.0,63.0,30.08,SE,131,4.0,-999.0,83,-99.99,,,0.00,weatherlink.com 1.10,2013-02-07 06:24:00,
2013-02-07 01:37:00,67.8,63.0,30.07,SE,128,0.0,-999.0,83,-99.99,,,0.00,weatherlink.com 1.10,2013-02-07 06:37:00,
2013-02-07 01:52:00,67.5,63.0,30.07,SE,129,0.0,-999.0,84,-99.99,,,0.00,weatherlink.com 1.10,2013-02-07 06:52:00,
2013-02-07 02:07:00,67.2,62.0,30.07,SE,129,0.0,-999.0,84,-99.99,,,0.00,weatherlink.com 1.10,2013-02-07 07:07:00,
2013-02-07 02:22:00,67.0,62.0,30.07,SE,129,0.0,-999.0,85,-99.99,,,0.00,weatherlink.com 1.10,2013-02-07 07:22:00,
2013-02-07 02:38:00,66.8,62.0,30.06,SE,130,0.0,-999.0,85,-99.99,,,0.00,weatherlink.com 1.10,2013-02-07 07:38:00,
2013-02-07 02:52:00,66.8,62.0,30.06,SE,130,1.0,-999.0,85,-99.99,,,0.00,weatherlink.com 1.10,2013-02-07 07:52:00,
2013-02-07 03:08:00,66.9,62.0,30.05,SE,130,0.0,-999.0,85,-99.99,,,0.00,weatherlink.com 1.10,2013-02-07 08:08:00,
2013-02-07 03:23:00,67.1,63.0,30.06,SE,135,0.0,-999.0,85,-99.99,,,0.00,weatherlink.com 1.10,2013-02-07 08:23:00,
2013-02-07 03:38:00,67.0,62.0,30.05,SE,135,0.0,-999.0,85,-99.99,,,0.00,weatherlink.com 1.10,2013-02-07 08:38:00,
2013-02-07 03:53:00,67.1,63.0,30.05,SE,135,0.0,-999.0,85,-99.99,,,0.00,weatherlink.com 1.10,2013-02-07 08:53:00,
2013-02-07 04:08:00,67.1,62.0,30.05,SE,135,0.0,-999.0,84,-99.99,,,0.00,weatherlink.com 1.10,2013-02-07 09:08:00,
2013-02-07 04:24:00,67.2,62.0,30.05,SE,135,0.0,-999.0,84,-99.99,,,0.00,weatherlink.com 1.10,2013-02-07 09:24:00,
2013-02-07 04:37:00,67.3,62.0,30.05,SE,135,0.0,-999.0,84,-99.99,,,0.00,weatherlink.com 1.10,2013-02-07 09:37:00,
2013-02-07 04:53:00,67.2,62.0,30.05,SE,135,0.0,-999.0,83,-99.99,,,0.00,weatherlink.com 1.10,2013-02-07 09:53:00,
2013-02-07 05:08:00,67.1,62.0,30.05,SE,135,0.0,-999.0,84,-99.99,,,0.00,weatherlink.com 1.10,2013-02-07 10:08:00,
2013-02-07 05:23:00,67.1,62.0,30.06,SE,135,0.0,-999.0,84,-99.99,,,0.00,weatherlink.com 1.10,2013-02-07 10:23:00,
2013-02-07 05:38:00,67.0,62.0,30.06,SE,135,0.0,-999.0,84,-99.99,,,0.00,weatherlink.com 1.10,2013-02-07 10:38:00,
2013-02-07 05:53:00,67.1,62.0,30.06,SE,135,0.0,-999.0,84,-99.99,,,0.00,weatherlink.com 1.10,2013-02-07 10:53:00,
2013-02-07 06:08:00,67.1,62.0,30.06,SE,135,0.0,-999.0,84,-99.99,,,0.00,weatherlink.com 1.10,2013-02-07 11:08:00,
2013-02-07 06:23:00,67.2,62.0,30.06,SE,135,2.0,-999.0,83,-99.99,,,0.00,weatherlink.com 1.10,2013-02-07 11:23:00,
2013-02-07 06:38:00,67.3,62.0,30.06,SE,135,0.0,-999.0,83,-99.99,,,0.00,weatherlink.com 1.10,2013-02-07 11:38:00,
2013-02-07 06:53:00,67.3,62.0,30.06,SE,135,0.0,-999.0,83,-99.99,,,0.00,weatherlink.com 1.10,2013-02-07 11:53:00,
2013-02-07 07:08:00,67.4,62.0,30.07,SE,135,1.0,-999.0,83,-99.99,,,0.00,weatherlink.com 1.10,2013-02-07 12:08:00,
2013-02-07 07:23:00,67.5,62.0,30.06,SE,135,0.0,-999.0,83,-99.99,,,0.00,weatherlink.com 1.10,2013-02-07 12:23:00,
2013-02-07 07:38:00,67.6,62.0,30.07,SE,136,0.0,-999.0,83,-99.99,,,0.00,weatherlink.com 1.10,2013-02-07 12:38:00,
2013-02-07 07:54:00,67.8,62.0,30.07,SE,138,0.0,-999.0,82,-99.99,,,0.00,weatherlink.com 1.10,2013-02-07 12:54:00,
2013-02-07 08:08:00,68.6,63.0,30.07,SSE,149,1.0,-999.0,81,-99.99,,,0.00,weatherlink.com 1.10,2013-02-07 13:08:00,
2013-02-07 08:23:00,69.5,63.0,30.06,SSE,153,6.0,-999.0,80,-99.99,,,0.00,weatherlink.com 1.10,2013-02-07 13:23:00,
2013-02-07 08:38:00,70.5,63.0,30.06,SW,225,6.0,-999.0,78,-99.99,,,0.00,weatherlink.com 1.10,2013-02-07 13:38:00,
2013-02-07 08:53:00,71.4,64.0,30.06,SSW,192,5.0,-999.0,76,-99.99,,,0.00,weatherlink.com 1.10,2013-02-07 13:53:00,
2013-02-07 09:08:00,72.2,64.0,30.07,SW,223,6.0,-999.0,74,-99.99,,,0.00,weatherlink.com 1.10,2013-02-07 14:08:00,
2013-02-07 09:24:00,72.6,63.0,30.06,SSE,165,4.0,-999.0,72,-99.99,,,0.00,weatherlink.com 1.10,2013-02-07 14:24:00,
2013-02-07 09:38:00,73.0,63.0,30.05,South,178,7.0,-999.0,72,-99.99,,,0.00,weatherlink.com 1.10,2013-02-07 14:38:00,
2013-02-07 09:53:00,73.2,63.0,30.05,South,175,8.0,-999.0,70,-99.99,,,0.00,weatherlink.com 1.10,2013-02-07 14:53:00,
2013-02-07 10:08:00,73.0,62.0,30.06,SSE,165,2.0,-999.0,69,-99.99,,,0.00,weatherlink.com 1.10,2013-02-07 15:08:00,
2013-02-07 10:23:00,73.1,63.0,30.06,SSE,150,1.0,-999.0,70,-99.99,,,0.00,weatherlink.com 1.10,2013-02-07 15:23:00,
2013-02-07 10:38:00,73.3,63.0,30.06,South,175,1.0,-999.0,70,-99.99,,,0.00,weatherlink.com 1.10,2013-02-07 15:38:00,
2013-02-07 10:53:00,74.3,63.0,30.05,SSW,198,6.0,-999.0,68,-99.99,,,0.00,weatherlink.com 1.10,2013-02-07 15:53:00,
2013-02-07 11:08:00,75.3,63.0,30.04,SW,235,3.0,-999.0,66,-99.99,,,0.00,weatherlink.com 1.10,2013-02-07 16:08:00,
2013-02-07 11:23:00,75.2,63.0,30.03,South,189,4.0,-999.0,65,-99.99,,,0.00,weatherlink.com 1.10,2013-02-07 16:23:00,
2013-02-07 11:38:00,75.2,63.0,30.02,SW,217,9.0,-999.0,65,-99.99,,,0.00,weatherlink.com 1.10,2013-02-07 16:38:00,
2013-02-07 11:53:00,75.5,62.0,30.02,SSE,148,12.0,-999.0,63,-99.99,,,0.00,weatherlink.com 1.10,2013-02-07 16:53:00,
2013-02-07 12:08:00,76.0,63.0,30.01,SW,221,6.0,-999.0,64,-99.99,,,0.00,weatherlink.com 1.10,2013-02-07 17:08:00,
2013-02-07 12:23:00,76.4,62.0,30.01,South,190,6.0,-999.0,62,-99.99,,,0.00,weatherlink.com 1.10,2013-02-07 17:23:00,
2013-02-07 12:38:00,76.7,63.0,30.00,SSE,165,7.0,-999.0,62,-99.99,,,0.00,weatherlink.com 1.10,2013-02-07 17:38:00,
2013-02-07 12:53:00,77.8,63.0,29.99,WSW,240,8.0,-999.0,60,-99.99,,,0.00,weatherlink.com 1.10,2013-02-07 17:53:00,
2013-02-07 13:08:00,78.0,63.0,29.99,WSW,239,11.0,-999.0,60,-99.99,,,0.00,weatherlink.com 1.10,2013-02-07 18:08:00,
2013-02-07 13:23:00,78.4,63.0,29.98,South,184,4.0,-999.0,59,-99.99,,,0.00,weatherlink.com 1.10,2013-02-07 18:23:00,
2013-02-07 13:38:00,78.0,63.0,29.96,SSW,198,5.0,-999.0,61,-99.99,,,0.00,weatherlink.com 1.10,2013-02-07 18:38:00,
2013-02-07 13:53:00,78.0,63.0,29.94,South,169,4.0,-999.0,61,-99.99,,,0.00,weatherlink.com 1.10,2013-02-07 18:53:00,
2013-02-07 14:08:00,78.5,63.0,29.93,South,182,9.0,-999.0,60,-99.99,,,0.00,weatherlink.com 1.10,2013-02-07 19:08:00,
2013-02-07 14:23:00,78.1,63.0,29.94,SSW,200,6.0,-999.0,61,-99.99,,,0.00,weatherlink.com 1.10,2013-02-07 19:23:00,
2013-02-07 14:38:00,78.6,62.0,29.93,SW,217,9.0,-999.0,58,-99.99,,,0.00,weatherlink.com 1.10,2013-02-07 19:38:00,
2013-02-07 14:53:00,79.0,63.0,29.92,SE,142,8.0,-999.0,58,-99.99,,,0.00,weatherlink.com 1.10,2013-02-07 19:53:00,
2013-02-07 15:08:00,79.7,63.0,29.90,South,183,5.0,-999.0,57,-99.99,,,0.00,weatherlink.com 1.10,2013-02-07 20:08:00,
2013-02-07 15:23:00,79.6,62.0,29.90,South,189,9.0,-999.0,56,-99.99,,,0.00,weatherlink.com 1.10,2013-02-07 20:23:00,
2013-02-07 15:38:00,79.2,63.0,29.91,SW,225,10.0,-999.0,58,-99.99,,,0.00,weatherlink.com 1.10,2013-02-07 20:38:00,
2013-02-07 15:53:00,79.2,63.0,29.90,South,173,6.0,-999.0,57,-99.99,,,0.00,weatherlink.com 1.10,2013-02-07 20:53:00,
2013-02-07 16:08:00,79.3,62.0,29.91,South,186,7.0,-999.0,56,-99.99,,,0.00,weatherlink.com 1.10,2013-02-07 21:08:00,
2013-02-07 16:23:00,79.0,62.0,29.90,South,181,5.0,-999.0,57,-99.99,,,0.00,weatherlink.com 1.10,2013-02-07 21:23:00,
2013-02-07 16:38:00,79.1,62.0,29.90,SW,233,6.0,-999.0,56,-99.99,,,0.00,weatherlink.com 1.10,2013-02-07 21:38:00,
2013-02-07 16:53:00,79.0,61.0,29.89,SSW,204,11.0,-999.0,55,-99.99,,,0.00,weatherlink.com 1.10,2013-02-07 21:53:00,
2013-02-07 17:08:00,79.1,61.0,29.90,South,173,4.0,-999.0,54,-99.99,,,0.00,weatherlink.com 1.10,2013-02-07 22:08:00,
2013-02-07 17:23:00,79.2,62.0,29.90,SSW,198,7.0,-999.0,55,-99.99,,,0.00,weatherlink.com 1.10,2013-02-07 22:23:00,
2013-02-07 17:38:00,78.7,62.0,29.87,SW,220,7.0,-999.0,56,-99.99,,,0.00,weatherlink.com 1.10,2013-02-07 22:38:00,
2013-02-07 17:53:00,78.1,62.0,29.88,SW,214,6.0,-999.0,58,-99.99,,,0.00,weatherlink.com 1.10,2013-02-07 22:53:00,
2013-02-07 18:08:00,77.7,62.0,29.89,SSW,195,1.0,-999.0,59,-99.99,,,0.00,weatherlink.com 1.10,2013-02-07 23:08:00,
2013-02-07 18:23:00,77.2,62.0,29.88,South,171,4.0,-999.0,60,-99.99,,,0.00,weatherlink.com 1.10,2013-02-07 23:23:00,
2013-02-07 18:38:00,76.8,62.0,29.90,SW,226,6.0,-999.0,61,-99.99,,,0.00,weatherlink.com 1.10,2013-02-07 23:38:00,
2013-02-07 18:53:00,76.9,62.0,29.91,SW,215,4.0,-999.0,61,-99.99,,,0.00,weatherlink.com 1.10,2013-02-07 23:53:00,
2013-02-07 19:08:00,76.8,62.0,29.90,SW,219,5.0,-999.0,61,-99.99,,,0.00,weatherlink.com 1.10,2013-02-08 00:08:00,
2013-02-07 19:23:00,76.8,61.0,29.91,SW,216,8.0,-999.0,59,-99.99,,,0.00,weatherlink.com 1.10,2013-02-08 00:23:00,
2013-02-07 19:38:00,77.4,60.0,29.91,WSW,247,6.0,-999.0,55,-99.99,,,0.00,weatherlink.com 1.10,2013-02-08 00:38:00,
2013-02-07 19:52:00,77.1,59.0,29.89,SSW,212,4.0,-999.0,54,-99.99,,,0.00,weatherlink.com 1.10,2013-02-08 00:52:00,
2013-02-07 20:08:00,76.9,60.0,29.89,South,188,8.0,-999.0,57,-99.99,,,0.00,weatherlink.com 1.10,2013-02-08 01:08:00,
2013-02-07 20:23:00,76.4,62.0,29.90,SSW,208,7.0,-999.0,61,-99.99,,,0.00,weatherlink.com 1.10,2013-02-08 01:23:00,
2013-02-07 20:38:00,75.9,62.0,29.89,WSW,244,5.0,-999.0,63,-99.99,,,0.00,weatherlink.com 1.10,2013-02-08 01:38:00,
2013-02-07 20:53:00,75.5,62.0,29.89,SSW,206,6.0,-999.0,64,-99.99,,,0.00,weatherlink.com 1.10,2013-02-08 01:53:00,
2013-02-07 21:09:00,75.0,63.0,29.90,SW,216,6.0,-999.0,67,-99.99,,,0.00,weatherlink.com 1.10,2013-02-08 02:09:00,
2013-02-07 21:22:00,74.7,63.0,29.90,SSW,195,9.0,-999.0,68,-99.99,,,0.00,weatherlink.com 1.10,2013-02-08 02:22:00,
2013-02-07 21:38:00,74.5,64.0,29.89,SW,228,6.0,-999.0,70,-99.99,,,0.00,weatherlink.com 1.10,2013-02-08 02:38:00,
2013-02-07 21:54:00,74.1,65.0,29.88,WSW,254,4.0,-999.0,72,-99.99,,,0.00,weatherlink.com 1.10,2013-02-08 02:54:00,
2013-02-07 22:08:00,73.9,65.0,29.88,SW,232,4.0,-999.0,73,-99.99,,,0.00,weatherlink.com 1.10,2013-02-08 03:08:00,
2013-02-07 22:23:00,73.7,65.0,29.88,SW,221,5.0,-999.0,74,-99.99,,,0.00,weatherlink.com 1.10,2013-02-08 03:23:00,
2013-02-07 22:38:00,73.4,65.0,29.89,SW,224,8.0,-999.0,74,-99.99,,,0.00,weatherlink.com 1.10,2013-02-08 03:38:00,
2013-02-07 22:53:00,73.0,65.0,29.88,SW,229,10.0,-999.0,76,-99.99,,,0.00,weatherlink.com 1.10,2013-02-08 03:53:00,
2013-02-07 23:08:00,72.6,65.0,29.88,SW,225,4.0,-999.0,77,-99.99,,,0.00,weatherlink.com 1.10,2013-02-08 04:08:00,
2013-02-07 23:23:00,72.2,65.0,29.88,SW,232,2.0,-999.0,78,-99.99,,,0.00,weatherlink.com 1.10,2013-02-08 04:23:00,
2013-02-07 23:38:00,71.7,65.0,29.88,West,259,5.0,-999.0,79,-99.99,,,0.00,weatherlink.com 1.10,2013-02-08 04:38:00,
2013-02-07 23:53:00,71.3,65.0,29.88,West,262,4.0,-999.0,80,-99.99,,,0.00,weatherlink.com 1.10,2013-02-08 04:53:00,